Time;durP1;ratioP1;P1;durP2;ratioP2;P2;SDS_P1;SDS_P2;PMS_P1;PMS_P2;Temp;Humidity;BMP_temperature;BMP_pressure;BME280_temperature;BME280_humidity;BME280_pressure;Samples;Min_cycle;Max_cycle;Signal;HPM_P1;HPM_P2
2022/07/27 00:00:23;;;;;;;;;2.00;1.00;;;;;22.20;72.79;101633.69;5080061;28;49811;-72
2022/07/27 00:02:49;;;;;;;;;2.00;2.00;;;;;22.20;72.73;101630.13;5080104;28;45288;-73
2022/07/27 00:05:14;;;;;;;;;2.00;2.00;;;;;22.20;73.18;101632.81;5079811;28;46876;-71
2022/07/27 00:07:40;;;;;;;;;5.33;2.33;;;;;22.19;73.22;101631.03;5079244;28;63881;-71
2022/07/27 00:10:05;;;;;;;;;4.33;2.00;;;;;22.18;73.63;101631.97;5080144;28;45225;-71
2022/07/27 00:12:31;;;;;;;;;2.00;2.00;;;;;22.14;74.14;101630.28;5061820;28;45524;-72
2022/07/27 00:14:57;;;;;;;;;4.00;3.00;;;;;22.11;74.11;101630.34;5079901;28;45827;-73
2022/07/27 00:17:26;;;;;;;;;3.00;2.00;;;;;22.09;74.70;101626.78;5079515;28;45217;-71
2022/07/27 00:19:51;;;;;;;;;3.33;2.00;;;;;22.07;75.00;101629.50;5080069;28;45354;-71
2022/07/27 00:22:17;;;;;;;;;3.00;2.00;;;;;22.06;75.39;101632.25;5079190;28;60790;-73
2022/07/27 00:24:42;;;;;;;;;2.00;2.00;;;;;22.02;75.44;101617.09;5079751;28;45764;-71
2022/07/27 00:27:08;;;;;;;;;4.33;3.33;;;;;22.00;75.55;101625.19;5079653;28;45441;-71
2022/07/27 00:29:33;;;;;;;;;5.00;3.67;;;;;22.03;76.27;101629.59;5079111;28;59345;-72
2022/07/27 00:31:59;;;;;;;;;3.33;3.00;;;;;22.01;76.08;101626.09;5061478;28;45593;-72
2022/07/27 00:34:24;;;;;;;;;3.00;3.00;;;;;22.00;76.13;101630.59;5061431;28;45800;-72
2022/07/27 00:36:52;;;;;;;;;3.33;3.00;;;;;22.02;76.30;101619.78;5078844;28;62592;-72
2022/07/27 00:39:18;;;;;;;;;2.00;2.00;;;;;21.99;76.55;101623.41;5079671;28;45328;-71
2022/07/27 00:41:44;;;;;;;;;2.67;2.67;;;;;21.98;76.83;101624.34;5079716;28;45271;-72
2022/07/27 00:44:11;;;;;;;;;3.00;3.00;;;;;21.94;77.05;101618.16;5061307;28;46048;-73
2022/07/27 00:46:36;;;;;;;;;2.33;2.00;;;;;21.94;77.06;101619.94;5078991;28;45304;-71
2022/07/27 00:49:02;;;;;;;;;2.67;2.67;;;;;21.90;77.39;101620.97;5079527;28;45261;-71
2022/07/27 00:51:27;;;;;;;;;2.33;2.33;;;;;21.90;77.39;101626.34;5079539;28;45490;-72
2022/07/27 00:53:53;;;;;;;;;4.00;2.67;;;;;21.84;77.56;101615.69;5060301;28;61944;-72
2022/07/27 00:56:19;;;;;;;;;3.33;2.67;;;;;21.85;78.01;101620.19;5078005;28;45236;-70
2022/07/27 00:58:47;;;;;;;;;2.00;2.00;;;;;21.82;77.85;101626.50;5061367;28;45338;-71
2022/07/27 01:01:13;;;;;;;;;5.67;3.33;;;;;21.79;78.38;101615.84;5079533;28;45508;-72
2022/07/27 01:03:38;;;;;;;;;4.00;2.67;;;;;21.76;78.55;101623.06;5079686;28;46020;-72
2022/07/27 01:06:04;;;;;;;;;4.67;3.00;;;;;21.76;78.88;101620.38;5078254;28;59408;-71
2022/07/27 01:08:29;;;;;;;;;3.67;3.67;;;;;21.71;79.61;101616.00;5079390;28;45400;-72
2022/07/27 01:10:56;;;;;;;;;3.00;2.00;;;;;21.73;79.47;101617.75;5078359;28;56121;-71
2022/07/27 01:13:23;;;;;;;;;4.00;2.00;;;;;21.69;79.72;101614.28;5078913;28;46396;-71
2022/07/27 01:15:48;;;;;;;;;3.00;3.00;;;;;21.66;79.82;101608.94;5060381;28;45544;-72
2022/07/27 01:18:26;;;;;;;;;3.00;2.00;;;;;21.63;80.01;101612.59;5079186;28;45399;-72
2022/07/27 01:20:51;;;;;;;;;3.33;2.00;;;;;21.60;79.68;101606.41;5079065;28;45638;-71
2022/07/27 01:23:16;;;;;;;;;2.00;2.00;;;;;21.54;80.05;101604.75;5060822;28;45854;-71
2022/07/27 01:25:42;;;;;;;;;3.33;3.00;;;;;21.52;80.81;101598.53;5078748;28;45458;-72
2022/07/27 01:28:07;;;;;;;;;2.00;2.00;;;;;21.50;80.77;101600.34;5060905;28;45414;-70
2022/07/27 01:30:34;;;;;;;;;4.00;4.00;;;;;21.48;80.62;101602.19;5078255;28;57470;-70
2022/07/27 01:33:05;;;;;;;;;4.00;3.00;;;;;21.47;81.41;101599.53;5078478;28;46741;-72
2022/07/27 01:35:31;;;;;;;;;4.00;4.00;;;;;21.35;80.97;101580.06;5078672;28;45470;-72
2022/07/27 01:37:57;;;;;;;;;3.33;2.67;;;;;21.37;81.81;101594.38;5060529;28;45542;-71
2022/07/27 01:40:22;;;;;;;;;3.33;2.67;;;;;21.36;81.53;101595.28;5060512;28;45473;-72
2022/07/27 01:42:48;;;;;;;;;5.00;3.00;;;;;21.33;82.04;101589.09;5060399;28;46247;-71
2022/07/27 01:45:14;;;;;;;;;4.00;2.00;;;;;21.26;82.12;101593.69;5078146;28;45199;-72
2022/07/27 01:47:39;;;;;;;;;5.67;3.33;;;;;21.26;82.25;101591.00;5078418;28;45485;-73
2022/07/27 01:50:05;;;;;;;;;2.33;2.33;;;;;21.27;81.96;101595.44;5077800;28;54258;-71
2022/07/27 01:52:30;;;;;;;;;7.00;2.00;;;;;21.24;82.19;101591.91;5078328;28;45479;-70
2022/07/27 01:54:56;;;;;;;;;3.67;3.00;;;;;21.19;83.07;101583.94;5077547;28;45541;-71
2022/07/27 01:57:21;;;;;;;;;4.00;2.00;;;;;21.17;83.05;101585.81;5078109;28;46030;-72
2022/07/27 01:59:46;;;;;;;;;3.00;3.00;;;;;21.18;83.50;101590.25;5078029;28;45815;-72
2022/07/27 02:02:14;;;;;;;;;2.00;2.00;;;;;21.13;83.36;101578.72;5077818;28;53930;-73
2022/07/27 02:04:40;;;;;;;;;8.00;3.00;;;;;21.13;83.62;101594.84;5077855;28;45363;-70
2022/07/27 02:07:05;;;;;;;;;3.33;3.00;;;;;21.10;83.51;101594.91;5059692;28;45318;-71
2022/07/27 02:09:30;;;;;;;;;7.33;4.00;;;;;21.03;84.09;101578.00;5058662;28;60923;-71
2022/07/27 02:14:40;;;;;;;;;4.67;1.33;;;;;20.97;84.55;101585.31;5078158;28;45273;-71
2022/07/27 02:17:05;;;;;;;;;5.00;3.00;;;;;20.95;84.73;101590.72;5077993;28;45431;-71
2022/07/27 02:19:30;;;;;;;;;3.67;3.00;;;;;20.91;85.44;101586.31;5078055;28;45326;-72
2022/07/27 02:21:56;;;;;;;;;3.00;1.67;;;;;20.88;85.16;101584.59;5077463;28;60211;-71
2022/07/27 02:24:21;;;;;;;;;4.00;2.67;;;;;20.84;85.71;101590.94;5077172;28;64259;-71
2022/07/27 02:26:46;;;;;;;;;2.67;2.67;;;;;20.85;85.73;101589.13;5059763;28;51649;-71
2022/07/27 02:29:12;;;;;;;;;6.67;4.67;;;;;20.78;85.94;101583.00;5059859;28;45518;-72
2022/07/27 02:31:37;;;;;;;;;4.00;4.00;;;;;20.81;86.29;101592.78;5077236;28;61188;-70
2022/07/27 02:34:02;;;;;;;;;2.67;2.67;;;;;20.78;86.54;101598.22;5077575;28;46871;-73
2022/07/27 02:36:28;;;;;;;;;2.67;2.67;;;;;20.77;87.23;101586.56;5059733;28;45508;-71
2022/07/27 02:38:54;;;;;;;;;5.00;4.00;;;;;20.73;87.48;101592.06;5078240;28;45465;-71
2022/07/27 02:41:19;;;;;;;;;4.00;4.00;;;;;20.71;87.72;101588.50;5077694;28;46831;-72
2022/07/27 02:43:45;;;;;;;;;3.00;3.00;;;;;20.73;87.38;101594.75;5076735;28;59644;-70
2022/07/27 02:46:10;;;;;;;;;5.67;3.67;;;;;20.69;88.15;101593.91;5059308;28;45449;-72
2022/07/27 02:48:36;;;;;;;;;4.67;4.33;;;;;20.68;88.24;101589.47;5077728;28;45947;-71
2022/07/27 02:51:02;;;;;;;;;4.00;4.00;;;;;20.67;87.88;101588.59;5077407;28;47677;-70
2022/07/27 02:53:28;;;;;;;;;5.00;4.00;;;;;20.67;88.29;101591.25;5058965;28;45471;-71
2022/07/27 02:55:54;;;;;;;;;3.67;3.00;;;;;20.63;88.24;101588.66;5077319;28;45463;-72
2022/07/27 02:58:20;;;;;;;;;5.67;4.00;;;;;20.60;88.26;101586.03;5077429;28;45355;-70
2022/07/27 03:00:45;;;;;;;;;3.67;3.00;;;;;20.58;88.67;101579.81;5059190;28;45468;-71
2022/07/27 03:03:11;;;;;;;;;1.67;1.67;;;;;20.52;88.53;101579.94;5076997;28;45575;-71
2022/07/27 03:05:36;;;;;;;;;4.00;3.67;;;;;20.55;89.09;101586.09;5077427;28;45331;-71
2022/07/27 03:08:02;;;;;;;;;4.33;3.00;;;;;20.53;89.37;101589.75;5077436;28;45287;-72
2022/07/27 03:10:28;;;;;;;;;3.67;2.67;;;;;20.48;88.88;101578.22;5077286;28;45556;-71
2022/07/27 03:12:53;;;;;;;;;3.67;2.00;;;;;20.47;89.82;101588.06;5076977;28;45203;-70
2022/07/27 03:15:19;;;;;;;;;2.00;2.00;;;;;20.44;89.60;101587.19;5076402;28;56331;-71
2022/07/27 03:17:44;;;;;;;;;6.33;3.33;;;;;20.40;90.12;101581.00;5076420;28;54490;-71
2022/07/27 03:20:10;;;;;;;;;5.00;3.00;;;;;20.36;90.11;101576.59;5061518;28;46401;-73
2022/07/27 03:22:35;;;;;;;;;2.67;2.67;;;;;20.34;89.77;101581.97;5080815;28;45204;-71
2022/07/27 03:25:01;;;;;;;;;3.00;3.00;;;;;20.32;90.14;101581.13;5062671;28;45195;-70
2022/07/27 03:27:27;;;;;;;;;4.00;2.00;;;;;20.32;90.54;101580.25;5080315;28;59655;-72
2022/07/27 03:29:53;;;;;;;;;2.00;2.00;;;;;20.29;89.99;101572.22;5062679;28;46207;-71
2022/07/27 03:32:18;;;;;;;;;6.33;3.33;;;;;20.27;90.55;101583.00;5080281;28;45403;-70
2022/07/27 03:34:44;;;;;;;;;4.00;2.33;;;;;20.24;90.03;101584.84;5080229;28;51706;-71
2022/07/27 03:37:09;;;;;;;;;2.00;2.00;;;;;20.20;90.23;101572.41;5062047;28;49393;-71
2022/07/27 03:39:34;;;;;;;;;7.67;3.33;;;;;20.18;90.88;101575.09;5080475;28;46248;-71
2022/07/27 03:42:00;;;;;;;;;4.00;1.67;;;;;20.15;90.46;101581.41;5078230;28;67810;-72
2022/07/27 03:44:25;;;;;;;;;5.33;2.67;;;;;20.14;90.53;101573.41;5080176;28;50964;-71
2022/07/27 03:46:50;;;;;;;;;2.67;2.67;;;;;20.12;91.03;101577.88;5079464;28;52318;-71
2022/07/27 03:49:16;;;;;;;;;7.33;5.67;;;;;20.11;91.11;101584.16;5079485;28;64802;-71
2022/07/27 03:51:41;;;;;;;;;6.67;5.00;;;;;20.04;91.07;101571.78;5061982;28;45437;-71
2022/07/27 03:54:06;;;;;;;;;5.00;2.67;;;;;20.01;90.71;101566.44;5080008;28;47299;-72
2022/07/27 03:56:32;;;;;;;;;3.33;2.67;;;;;20.00;91.17;101578.09;5079249;28;56642;-72
2022/07/27 03:58:58;;;;;;;;;5.67;4.67;;;;;20.01;90.80;101585.22;5080061;28;45452;-71
2022/07/27 04:01:23;;;;;;;;;3.67;2.67;;;;;19.93;91.52;101574.63;5079906;27;45280;-72
2022/07/27 04:03:49;;;;;;;;;6.67;2.33;;;;;20.00;91.11;101586.13;5079386;28;60387;-71
2022/07/27 04:06:14;;;;;;;;;1.67;1.33;;;;;19.97;91.18;101572.75;5044657;28;52349;-71
2022/07/27 04:08:39;;;;;;;;;1.33;1.33;;;;;19.99;90.62;101576.34;5061273;28;65042;-71
2022/07/27 04:11:05;;;;;;;;;1.33;1.33;;;;;20.00;91.04;101580.78;5061791;28;46114;-71
2022/07/27 04:13:30;;;;;;;;;2.67;2.67;;;;;19.96;90.41;101584.41;5080136;28;45502;-71
2022/07/27 04:15:56;;;;;;;;;1.33;1.33;;;;;20.00;90.01;101586.13;5079561;28;45137;-72
2022/07/27 04:18:22;;;;;;;;;2.00;1.33;;;;;19.98;89.87;101587.97;5079944;28;45527;-72
2022/07/27 04:20:47;;;;;;;;;4.33;2.00;;;;;19.98;90.21;101582.59;5079852;28;45314;-72
2022/07/27 04:23:12;;;;;;;;;2.33;1.33;;;;;19.98;90.03;101586.16;5079517;28;55819;-71
2022/07/27 04:25:38;;;;;;;;;2.33;0.67;;;;;19.96;90.13;101582.59;5079696;28;45453;-71
2022/07/27 04:28:03;;;;;;;;;3.33;2.00;;;;;19.94;89.50;101581.75;5079692;28;45846;-71
2022/07/27 04:30:29;;;;;;;;;4.33;1.33;;;;;19.94;89.91;101588.91;5078261;28;45365;-71
2022/07/27 04:32:54;;;;;;;;;4.33;2.00;;;;;19.94;89.29;101583.56;5079852;28;45335;-72
2022/07/27 04:35:20;;;;;;;;;5.33;2.67;;;;;19.91;89.45;101581.78;5079451;27;50146;-72
2022/07/27 04:37:45;;;;;;;;;1.67;1.67;;;;;19.95;89.41;101585.31;5079736;28;46625;-71
2022/07/27 04:40:11;;;;;;;;;3.67;2.00;;;;;19.93;88.87;101587.16;5078603;28;58587;-71
2022/07/27 04:42:36;;;;;;;;;4.33;1.33;;;;;19.97;88.79;101589.72;5079780;28;45291;-71
2022/07/27 04:45:03;;;;;;;;;2.33;2.33;;;;;19.98;88.30;101591.53;5079589;28;45298;-71
2022/07/27 04:47:28;;;;;;;;;3.33;2.33;;;;;19.96;88.21;101587.09;5078692;28;45383;-72
2022/07/27 04:49:54;;;;;;;;;3.33;3.33;;;;;19.98;87.84;101590.66;5079265;28;45239;-72
2022/07/27 04:52:20;;;;;;;;;4.67;1.67;;;;;19.96;88.48;101589.78;5079838;28;45221;-71
2022/07/27 04:54:45;;;;;;;;;5.00;2.67;;;;;19.96;88.13;101587.97;5078199;28;55541;-72
2022/07/27 04:57:10;;;;;;;;;2.33;0.33;;;;;19.96;87.65;101584.41;5078635;28;66095;-71
2022/07/27 04:59:36;;;;;;;;;2.67;1.67;;;;;19.96;87.68;101589.78;5060991;28;45264;-73
2022/07/27 05:02:01;;;;;;;;;5.67;1.33;;;;;19.96;87.22;101587.97;5079353;28;45200;-70
2022/07/27 05:04:27;;;;;;;;;2.00;1.67;;;;;19.99;86.66;101589.72;5079067;28;45589;-71
2022/07/27 05:06:52;;;;;;;;;3.67;2.00;;;;;19.99;86.62;101589.72;5060894;28;46445;-72
2022/07/27 05:09:17;;;;;;;;;3.33;1.67;;;;;20.00;87.13;101591.50;5060374;28;56163;-71
2022/07/27 05:11:43;;;;;;;;;2.33;2.33;;;;;20.01;86.63;101590.59;5078762;28;52867;-72
2022/07/27 05:14:08;;;;;;;;;1.33;1.33;;;;;20.02;87.04;101595.03;5078427;28;58389;-70
2022/07/27 05:16:33;;;;;;;;;5.33;2.33;;;;;20.02;86.56;101593.22;5078594;28;46624;-70
2022/07/27 05:18:59;;;;;;;;;5.67;2.67;;;;;20.03;86.54;101600.38;5078248;28;61180;-72
2022/07/27 05:21:25;;;;;;;;;12.00;3.00;;;;;20.04;86.09;101599.47;5079151;28;45469;-72
2022/07/27 05:23:51;;;;;;;;;1.33;1.33;;;;;20.05;86.10;101595.88;5060995;28;45397;-72
2022/07/27 05:26:16;;;;;;;;;3.33;1.67;;;;;20.04;85.66;101603.94;5060696;28;46264;-73
2022/07/27 05:28:42;;;;;;;;;3.00;1.67;;;;;20.04;85.65;101595.91;5078037;28;60336;-71
2022/07/27 05:31:07;;;;;;;;;2.67;1.33;;;;;20.01;85.90;101598.63;5079047;28;45379;-72
2022/07/27 05:33:33;;;;;;;;;3.33;1.67;;;;;20.03;85.71;101597.72;5078311;28;54852;-73
2022/07/27 05:35:59;;;;;;;;;1.33;1.33;;;;;20.03;85.59;101607.56;5078547;28;45463;-71
2022/07/27 05:38:24;;;;;;;;;1.67;1.67;;;;;20.07;85.22;101609.25;5059910;28;60215;-70
2022/07/27 05:40:49;;;;;;;;;2.33;2.33;;;;;20.07;84.92;101610.13;5078640;28;45273;-71
2022/07/27 05:43:15;;;;;;;;;3.00;2.00;;;;;20.05;85.55;101608.41;5060216;28;45191;-72
2022/07/27 05:45:40;;;;;;;;;4.67;1.67;;;;;20.06;84.74;101618.22;5078107;28;45806;-71
2022/07/27 05:48:05;;;;;;;;;8.00;2.67;;;;;20.04;85.34;101606.63;5078144;28;45196;-70
2022/07/27 05:50:31;;;;;;;;;3.33;2.33;;;;;20.05;84.62;101614.63;5060076;28;55779;-71
2022/07/27 05:52:57;;;;;;;;;5.33;2.67;;;;;20.05;84.68;101603.03;5059248;28;62964;-71
2022/07/27 05:55:23;;;;;;;;;4.67;2.67;;;;;20.08;85.33;101614.59;5078107;28;46536;-72
2022/07/27 05:57:48;;;;;;;;;3.33;3.33;;;;;20.11;85.03;101616.34;5078234;28;45326;-71
2022/07/27 06:00:14;;;;;;;;;3.00;3.00;;;;;20.09;84.73;101619.06;5077877;28;57097;-71
2022/07/27 06:02:40;;;;;;;;;6.67;3.67;;;;;20.13;84.64;101618.09;5078372;28;45501;-71
2022/07/27 06:05:06;;;;;;;;;3.67;2.67;;;;;20.13;84.59;101618.09;5078073;28;46300;-71
2022/07/27 06:10:15;;;;;;;;;5.67;2.00;;;;;20.14;84.72;101621.66;5062938;28;45367;-73
2022/07/27 06:12:42;;;;;;;;;5.00;3.00;;;;;20.17;84.29;101615.34;5078363;28;45262;-72
2022/07/27 06:15:08;;;;;;;;;5.33;3.00;;;;;20.13;83.82;101610.06;5078167;28;46463;-70
2022/07/27 06:17:34;;;;;;;;;4.67;3.00;;;;;20.18;84.11;101612.63;5077632;28;45259;-71
2022/07/27 06:19:59;;;;;;;;;2.33;2.00;;;;;20.22;84.25;101619.72;5077484;28;59020;-73
2022/07/27 06:22:25;;;;;;;;;3.67;3.67;;;;;20.23;84.49;101617.94;5077628;28;55248;-71
2022/07/27 06:24:50;;;;;;;;;2.67;2.67;;;;;20.23;83.94;101613.44;5077788;28;53045;-71
2022/07/27 06:27:16;;;;;;;;;2.33;2.33;;;;;20.27;84.35;101622.34;5059743;28;45418;-72
2022/07/27 06:29:41;;;;;;;;;4.00;3.00;;;;;20.32;84.52;101612.44;5077463;28;54452;-71
2022/07/27 06:32:06;;;;;;;;;4.00;2.00;;;;;20.30;83.66;101601.72;5076962;28;59543;-71
2022/07/27 06:34:32;;;;;;;;;3.00;3.00;;;;;20.34;84.27;101607.91;5059063;28;64028;-72
2022/07/27 06:36:58;;;;;;;;;4.33;2.00;;;;;20.42;84.12;101622.09;5077047;28;66318;-71
2022/07/27 06:39:24;;;;;;;;;5.67;3.67;;;;;20.45;84.26;101621.13;5077742;28;45311;-72
2022/07/27 06:41:50;;;;;;;;;3.67;2.67;;;;;20.46;83.69;101620.25;5077706;28;45221;-72
2022/07/27 06:44:15;;;;;;;;;4.00;3.33;;;;;20.49;83.47;101617.53;5076791;28;63188;-71
2022/07/27 06:46:41;;;;;;;;;5.33;3.00;;;;;20.53;83.56;101620.13;5077073;28;45284;-71
2022/07/27 06:49:06;;;;;;;;;4.00;3.00;;;;;20.58;83.56;101634.34;5059666;28;45456;-72
2022/07/27 06:51:32;;;;;;;;;3.67;3.00;;;;;20.61;83.61;101622.66;5077783;28;45391;-71
2022/07/27 06:53:57;;;;;;;;;2.33;2.00;;;;;20.62;83.41;101619.09;5075519;28;66265;-71
2022/07/27 06:56:22;;;;;;;;;3.00;3.00;;;;;20.67;83.79;101626.16;5076686;28;61729;-71
2022/07/27 06:58:49;;;;;;;;;5.33;4.00;;;;;20.73;83.07;101629.63;5077768;28;45519;-72
2022/07/27 07:01:14;;;;;;;;;3.00;3.00;;;;;20.70;82.92;101625.19;5077590;28;45363;-71
2022/07/27 07:03:39;;;;;;;;;3.33;3.33;;;;;20.76;83.12;101630.44;5076886;28;45944;-71
2022/07/27 07:06:05;;;;;;;;;4.00;2.00;;;;;20.79;82.93;101634.88;5076350;28;60588;-72
2022/07/27 07:08:30;;;;;;;;;7.33;3.00;;;;;20.83;82.85;101636.63;5059243;28;45237;-71
2022/07/27 07:10:55;;;;;;;;;3.00;3.00;;;;;20.85;82.76;101634.78;5058462;28;57710;-72
2022/07/27 07:13:21;;;;;;;;;7.67;5.33;;;;;20.90;82.40;101632.88;5042041;28;46661;-71
2022/07/27 07:15:46;;;;;;;;;3.67;3.00;;;;;20.93;82.99;101631.03;5076027;28;61241;-73
2022/07/27 07:18:12;;;;;;;;;3.67;3.67;;;;;20.97;82.74;101634.53;5076684;28;56448;-72
2022/07/27 07:20:38;;;;;;;;;5.00;4.00;;;;;20.98;82.86;101633.59;5077304;28;45158;-72
2022/07/27 07:23:04;;;;;;;;;4.67;2.33;;;;;21.06;82.70;101636.16;5058874;28;46435;-71
2022/07/27 07:25:31;;;;;;;;;5.00;3.00;;;;;21.06;82.83;101634.34;5076571;28;45410;-71
2022/07/27 07:27:57;;;;;;;;;4.67;3.00;;;;;21.12;82.21;101644.09;5077043;28;45386;-71
2022/07/27 07:30:22;;;;;;;;;2.33;2.33;;;;;21.17;82.67;101644.88;5059059;28;45427;-71
2022/07/27 07:32:48;;;;;;;;;4.67;4.67;;;;;21.18;82.11;101642.16;5058610;28;46864;-73
2022/07/27 07:35:13;;;;;;;;;4.00;4.00;;;;;21.23;82.40;101641.19;5058944;28;45203;-72
2022/07/27 07:37:39;;;;;;;;;5.33;3.00;;;;;21.29;82.21;101644.63;5059082;28;45517;-71
2022/07/27 07:40:05;;;;;;;;;4.33;3.00;;;;;21.31;81.77;101645.53;5076995;28;45433;-71
2022/07/27 07:42:31;;;;;;;;;7.67;4.00;;;;;21.35;82.22;101649.91;5076809;28;46580;-71
2022/07/27 07:44:56;;;;;;;;;4.33;3.67;;;;;21.39;82.25;101651.63;5076685;28;45472;-71
2022/07/27 07:47:22;;;;;;;;;6.67;4.00;;;;;21.41;82.25;101643.53;5076136;28;48001;-71
2022/07/27 07:49:48;;;;;;;;;3.00;3.00;;;;;21.45;81.42;101646.13;5077023;28;45380;-71
2022/07/27 07:52:14;;;;;;;;;7.00;3.33;;;;;21.50;81.91;101640.66;5076599;28;46873;-72
2022/07/27 07:54:39;;;;;;;;;3.67;3.67;;;;;21.55;81.67;101637.88;5076336;28;45272;-70
2022/07/27 07:57:04;;;;;;;;;5.33;4.00;;;;;21.57;81.20;101634.25;5075635;28;59287;-72
2022/07/27 07:59:30;;;;;;;;;4.33;4.33;;;;;21.63;81.51;101625.16;5076872;28;45570;-71
2022/07/27 08:01:55;;;;;;;;;8.67;4.00;;;;;21.67;81.41;101632.22;5075814;28;65582;-71
2022/07/27 08:04:20;;;;;;;;;4.00;3.00;;;;;21.72;81.16;101627.63;5076346;28;45337;-71
2022/07/27 08:06:46;;;;;;;;;5.00;4.00;;;;;21.76;81.48;101634.72;5080094;28;45278;-70
2022/07/27 08:09:15;;;;;;;;;4.33;4.33;;;;;21.83;80.79;101641.69;5079725;28;55576;-73
2022/07/27 08:11:41;;;;;;;;;5.00;4.00;;;;;21.84;80.63;101630.06;5061564;28;47920;-71
2022/07/27 08:14:07;;;;;;;;;5.33;5.00;;;;;21.89;80.63;101638.91;5079621;28;45341;-70
2022/07/27 08:16:32;;;;;;;;;8.33;4.00;;;;;21.94;80.29;101630.69;5061432;28;45264;-70
2022/07/27 08:18:57;;;;;;;;;5.33;5.33;;;;;21.97;80.12;101627.94;5061377;28;57262;-70
2022/07/27 08:21:23;;;;;;;;;7.00;4.67;;;;;22.01;79.94;101629.66;5079782;28;50909;-70
2022/07/27 08:23:48;;;;;;;;;7.00;5.33;;;;;22.02;80.01;101627.84;5078888;28;64560;-70
2022/07/27 08:26:14;;;;;;;;;5.33;5.33;;;;;22.04;79.74;101626.00;5079835;28;45346;-70
2022/07/27 08:28:39;;;;;;;;;6.00;4.33;;;;;22.06;79.59;101624.16;5079804;28;45334;-71
2022/07/27 08:31:05;;;;;;;;;5.00;5.00;;;;;22.09;79.34;101624.06;5079183;28;65622;-71
2022/07/27 08:33:30;;;;;;;;;8.00;5.00;;;;;22.12;79.63;101615.97;5080028;28;45397;-71
2022/07/27 08:35:56;;;;;;;;;7.67;4.67;;;;;22.14;79.85;101627.56;5079164;28;54247;-71
2022/07/27 08:38:21;;;;;;;;;7.00;7.00;;;;;22.20;79.80;101627.41;5079688;28;45523;-70
2022/07/27 08:40:47;;;;;;;;;6.00;5.00;;;;;22.25;79.38;101617.44;5079070;28;58655;-71
2022/07/27 08:43:14;;;;;;;;;7.67;5.00;;;;;22.30;79.20;101620.91;5061256;28;45414;-69
2022/07/27 08:45:40;;;;;;;;;4.67;4.33;;;;;22.32;79.21;101618.16;5061217;28;45319;-70
2022/07/27 08:48:06;;;;;;;;;7.00;5.33;;;;;22.37;79.16;101617.16;5176531;22;45985;-69
2022/07/27 08:50:33;;;;;;;;;6.00;5.33;;;;;22.44;78.16;101620.56;5040853;28;45738;-68
2022/07/27 08:53:05;;;;;;;;;7.67;6.00;;;;;22.47;77.70;101624.03;5058517;28;45291;-69
2022/07/27 08:55:33;;;;;;;;;6.33;5.33;;;;;22.47;77.77;101615.97;5040840;28;45463;-70
2022/07/27 08:57:59;;;;;;;;;7.33;6.00;;;;;22.52;77.83;101617.66;5058731;28;45559;-71
2022/07/27 09:00:25;;;;;;;;;8.00;6.67;;;;;22.54;77.51;101607.75;5041023;28;46710;-70
2022/07/27 09:02:51;;;;;;;;;8.00;6.00;;;;;22.60;77.43;101607.59;5058831;28;45551;-71
2022/07/27 09:05:16;;;;;;;;;5.00;5.00;;;;;22.64;77.26;101615.53;5040614;28;45351;-70
2022/07/27 09:07:42;;;;;;;;;7.33;6.67;;;;;22.71;76.78;101617.13;5058666;28;45390;-70
2022/07/27 09:10:08;;;;;;;;;7.00;5.00;;;;;22.72;75.68;101613.50;5040739;28;45859;-71
2022/07/27 09:12:34;;;;;;;;;3.00;2.00;;;;;22.79;75.38;101616.03;5058571;28;45455;-70
2022/07/27 09:15:13;;;;;;;;;7.67;5.67;;;;;22.82;75.77;101616.84;5040847;28;45194;-71
2022/07/27 09:17:40;;;;;;;;;6.00;6.00;;;;;22.87;75.08;101617.59;5058223;28;45519;-71
2022/07/27 09:20:07;;;;;;;;;6.67;6.67;;;;;22.93;75.43;101611.19;5040599;28;46036;-71
2022/07/27 09:22:52;;;;;;;;;6.33;5.33;;;;;22.94;74.45;101610.25;5040660;28;45388;-72
2022/07/27 09:25:32;;;;;;;;;6.00;4.00;;;;;23.02;74.21;101620.84;5041304;28;45449;-72
2022/07/27 09:27:58;;;;;;;;;6.00;4.33;;;;;23.07;73.86;101624.28;5058590;28;45454;-71
2022/07/27 09:30:26;;;;;;;;;4.67;3.00;;;;;23.09;73.18;101617.03;5058305;28;46666;-70
2022/07/27 09:33:05;;;;;;;;;3.33;3.00;;;;;23.17;72.90;101615.91;5040935;28;45357;-71
2022/07/27 09:35:35;;;;;;;;;3.00;3.00;;;;;23.19;72.36;101614.03;5058540;28;45205;-71
2022/07/27 09:38:21;;;;;;;;;7.00;5.67;;;;;23.29;72.00;101620.03;5058685;28;45359;-73
2022/07/27 09:40:56;;;;;;;;;7.00;4.00;;;;;23.24;71.21;101608.53;5058254;28;46230;-71
2022/07/27 09:43:22;;;;;;;;;4.67;3.00;;;;;23.36;71.29;101609.97;5058270;28;45280;-70
2022/07/27 09:45:47;;;;;;;;;5.00;4.00;;;;;23.42;70.34;101618.75;5057466;28;60416;-71
2022/07/27 09:48:16;;;;;;;;;7.67;7.67;;;;;23.46;70.51;101611.47;5058338;28;45456;-71
2022/07/27 09:50:46;;;;;;;;;6.33;5.00;;;;;23.53;69.95;101611.22;5058044;28;46042;-71
2022/07/27 09:53:12;;;;;;;;;5.00;4.00;;;;;23.61;69.29;101615.50;5039155;28;45566;-70
2022/07/27 09:55:37;;;;;;;;;3.00;3.00;;;;;23.66;69.32;101610.91;5039663;28;45481;-71
2022/07/27 09:58:03;;;;;;;;;5.00;5.00;;;;;23.70;67.93;101616.16;5057943;28;45469;-70
2022/07/27 10:00:28;;;;;;;;;7.33;5.00;;;;;23.73;68.18;101607.06;5057510;28;61247;-72
2022/07/27 10:02:54;;;;;;;;;4.67;4.67;;;;;23.69;67.50;101600.88;5057214;28;62841;-71
2022/07/27 10:05:23;;;;;;;;;7.00;4.00;;;;;23.67;67.34;101597.34;5057948;28;45262;-70
2022/07/27 10:07:49;;;;;;;;;6.67;5.33;;;;;23.68;67.00;101595.53;5058060;28;45328;-71
2022/07/27 10:10:15;;;;;;;;;5.00;3.33;;;;;23.75;67.02;101602.50;5057616;28;46612;-72
2022/07/27 10:12:43;;;;;;;;;5.33;4.00;;;;;23.85;66.14;101603.09;5039622;28;45385;-71
2022/07/27 10:15:11;;;;;;;;;4.00;3.00;;;;;23.89;66.24;101593.97;5040088;28;45355;-72
2022/07/27 10:17:38;;;;;;;;;6.00;3.00;;;;;23.88;65.82;101587.69;5058034;28;45302;-71
2022/07/27 10:20:07;;;;;;;;;3.33;3.33;;;;;23.94;65.51;101595.59;5039612;28;46729;-73
2022/07/27 10:22:49;;;;;;;;;4.67;3.67;;;;;23.97;64.73;101591.88;5057554;28;45513;-71
2022/07/27 10:25:14;;;;;;;;;7.00;4.00;;;;;23.99;64.67;101582.84;5039704;28;45395;-71
2022/07/27 10:27:40;;;;;;;;;6.33;3.33;;;;;24.03;63.89;101594.41;5039428;28;51965;-70
2022/07/27 10:30:05;;;;;;;;;5.00;3.00;;;;;24.09;63.61;101585.25;5056180;28;46614;-72
2022/07/27 10:32:32;;;;;;;;;2.00;2.00;;;;;24.15;62.55;101585.91;5057697;28;45488;-72
2022/07/27 10:34:59;;;;;;;;;3.67;2.00;;;;;24.23;61.99;101588.34;5057433;28;45286;-71
2022/07/27 10:37:31;;;;;;;;;3.00;3.00;;;;;24.26;61.57;101577.44;5057789;28;45425;-70
2022/07/27 10:42:43;;;;;;;;;41.33;27.33;;;;;24.40;60.34;101586.00;5057214;28;45355;-71
2022/07/27 10:45:11;;;;;;;;;4.67;3.00;;;;;24.48;59.25;101577.63;5039091;28;45332;-72
2022/07/27 10:47:49;;;;;;;;;67.75;37.50;;;;;24.52;58.82;101574.75;5039518;28;45502;-70
2022/07/27 10:50:14;;;;;;;;;14.33;8.67;;;;;24.58;59.35;101575.50;5057141;28;46663;-71
2022/07/27 10:52:47;;;;;;;;;2.33;2.00;;;;;24.61;58.70;101572.66;5057128;28;45249;-71
2022/07/27 10:55:31;;;;;;;;;2.67;2.67;;;;;24.58;58.03;101568.25;5056466;28;45296;-72
2022/07/27 10:58:18;;;;;;;;;3.00;3.00;;;;;24.56;59.00;101562.94;5057246;28;45462;-70
2022/07/27 11:00:49;;;;;;;;;12.00;4.67;;;;;24.64;58.89;101564.47;5056905;28;46833;-72
2022/07/27 11:03:27;;;;;;;;;3.67;3.67;;;;;24.73;58.26;101562.31;5056624;28;45503;-71
2022/07/27 11:05:56;;;;;;;;;2.67;2.67;;;;;24.78;58.18;101554.94;5038926;28;45512;-72
2022/07/27 11:08:26;;;;;;;;;2.67;2.00;;;;;24.80;57.63;101550.34;5057147;28;45588;-72
2022/07/27 11:10:52;;;;;;;;;6.00;4.00;;;;;24.89;56.98;101553.66;5038925;28;45902;-71
2022/07/27 11:13:20;;;;;;;;;5.00;2.33;;;;;24.98;57.54;101562.31;5038833;28;45666;-72
2022/07/27 11:15:51;;;;;;;;;4.00;3.00;;;;;25.09;57.25;101559.22;5056676;28;45275;-70
2022/07/27 11:18:17;;;;;;;;;3.00;3.00;;;;;25.15;57.07;101550.00;5057108;28;45229;-72
2022/07/27 11:20:42;;;;;;;;;3.00;3.00;;;;;25.20;56.80;101535.38;5056127;28;65219;-71
2022/07/27 11:23:18;;;;;;;;;6.00;3.00;;;;;25.24;55.97;101536.13;5056073;28;65588;-72
2022/07/27 11:25:59;;;;;;;;;2.67;2.00;;;;;25.26;56.47;101542.38;5056748;28;45502;-72
2022/07/27 11:28:29;;;;;;;;;3.00;3.00;;;;;25.32;55.56;101540.28;5057118;28;45181;-71